CYYW

Armstrong Airport

Armstrong, Ontario, Canada
METAR CYYW 251900Z AUTO 30003KT 240V350 9SM OVC016 07/05 A2984 RMK SLP113
Observed Flight Rules
Sep-25 @ 19:00 UTC (24 minutes ago) Marginal Visual Flight Rules
Wind Visibility Clouds
300° at 3 knots 9 miles
  • Overcast at 1,600' AGL
Temperatures Readings
Current 7°C / 45°F
Dewpoint 5°C / 41°F
Humidity 87%
Altimeter 29.84" Hg
Pressure 1011.3 hPa
Elevation 351
METAR CYYW 251900Z AUTO 30003KT 240V350 9SM OVC016 07/05 A2984 RMK SLP113
Observed Flight Rules
Sep-25 @ 19:00 UTC
(24 minutes ago)
MVFR
Wind Visibility
300° at 3 knots 9 miles
Clouds
  • Overcast at 1,600' AGL
Temperature Dewpoint
7°C / 45°F 5°C / 41°F
Humidity Altimeter Pressure
87% 29.84" Hg 1011.3 hPa